Fairfield, WA (99012)

2:13 AM PDT on August 29, 2014 (GMT -0700)
Rural Cheney | Change Station
CLOSE
Current Station
Personal Weather Station
Location: Cheney, WA
Elevation: 2326 ft
Nearby Weather Stations

Elev 2326 ft 47.50 °N, 117.46 °W | Updated 3 seconds ago

Partly Cloudy
Partly Cloudy
54.7 °F
Feels Like 54.7 °F
N
0.0
Wind Variable Wind from North
Gusts 0.0 mph

Today
High -- | Low -- °F
--% Chance of Precip.
Yesterday
High -- | Low -- °F
Precip. -- in
6:03 AM 7:34 PM
Waxing Crescent, 13% visible
Pressure 29.91 in
Visibility 10.0 miles
Clouds Clear
Dew Point 38 °F
Humidity 54%
Rainfall 0.00 in
Snow Depth Not available.
UV 0 out of 12
Pollen 7.70 out of 12
PM2.5 Good
Flu Activity Not available.
METAR KSFF 290853Z AUTO 03003KT 10SM CLR 16/07 A2995 RMK AO2 SLP128 T01560072 50002

More Conditions Fewer Conditions

Pressure 29.91 in
Visibility 10.0 miles
Clouds Clear
Dew Point 38 °F
Humidity 54%
Rainfall 0.00 in
Snow Depth Not available.
UV 0 out of 12
Pollen 7.70 out of 12
PM2.5 Good
Flu Activity Not available.
METAR KSFF 290853Z AUTO 03003KT 10SM CLR 16/07 A2995 RMK AO2 SLP128 T01560072 50002

More Conditions Fewer Conditions

10-Day Weather Forecast

Almanac

Astronomy

Aug. 29, 2014 Rise Set
Actual Time 6:03 AM PDT 7:34 PM PDT
Civil Twilight 5:31 AM PDT 8:06 PM PDT
Nautical Twilight 4:52 AM PDT 8:45 PM PDT
Astronomical Twilight 4:10 AM PDT 9:27 PM PDT
Moon 10:16 AM PDT 9:14 PM PDT
Length of Visible Light 14h 34m
Length of Day
13h 30m
Tomorrow will be 3m 16s shorter.
Waxing Crescent, 13% of the Moon is Illuminated
Today
Waxing Crescent
Sep 2
First Quarter
Sep 8
Full
Sep 15
Last Quarter
Sep 24
New

Today's Extremes

State Highs State Lows

Community

WunderPhotos

Upload Photos

1,748,203 photos uploaded!

Nearby

Air Quality

  Air Quality AQ Index Pollutant
Yesterday Good
OZONE
Yesterday Good
PM10
Current Good
PM2.5
Friday Good
PM10
Friday Good
OZONE

Snow Depth

Station Depth Elevation
Quartz Peak 1 in 4700 ft
Sourdough Gulch 0 in 4000 ft
Spruce Springs 0 in 5700 ft
Bunchgrass Meadow 0 in 5000 ft
Touchet 0 in 5530 ft

Earthquake Activity

City Distance Mag. Time & Date
No recent earthquake activity has been reported nearby.
Minimum magnitude displayed is 2.5.

Coastal Water Temperatures

Place Temperature
No Stations Reporting

Nearby Weather Stations